Map

Track Data

SID SEASON NUMBER BASIN SUBBASIN NAME ISO_TIME NATURE LAT LON WMO_WIND WMO_PRES WMO_AGENCY TRACK_TYPE DIST2LAND LANDFALL IFLAG USA_AGENCY USA_ATCF_ID USA_LAT USA_LON USA_RECORD USA_STATUS USA_WIND USA_PRES USA_SSHS USA_R34_NE USA_R34_SE USA_R34_SW USA_R34_NW USA_R50_NE USA_R50_SE USA_R50_SW USA_R50_NW USA_R64_NE USA_R64_SE USA_R64_SW USA_R64_NW USA_POCI USA_ROCI USA_RMW USA_EYE TOKYO_LAT TOKYO_LON TOKYO_GRADE TOKYO_WIND TOKYO_PRES TOKYO_R50_DIR TOKYO_R50_LONG TOKYO_R50_SHORT TOKYO_R30_DIR TOKYO_R30_LONG TOKYO_R30_SHORT TOKYO_LAND CMA_LAT CMA_LON CMA_CAT CMA_WIND CMA_PRES HKO_LAT HKO_LON HKO_CAT HKO_WIND HKO_PRES NEWDELHI_LAT NEWDELHI_LON NEWDELHI_GRADE NEWDELHI_WIND NEWDELHI_PRES NEWDELHI_CI NEWDELHI_DP NEWDELHI_POCI REUNION_LAT REUNION_LON REUNION_TYPE REUNION_WIND REUNION_PRES REUNION_TNUM REUNION_CI REUNION_RMW REUNION_R34_NE REUNION_R34_SE REUNION_R34_SW REUNION_R34_NW REUNION_R50_NE REUNION_R50_SE REUNION_R50_SW REUNION_R50_NW REUNION_R64_NE REUNION_R64_SE REUNION_R64_SW REUNION_R64_NW BOM_LAT BOM_LON BOM_TYPE BOM_WIND BOM_PRES BOM_TNUM BOM_CI BOM_RMW BOM_R34_NE BOM_R34_SE BOM_R34_SW BOM_R34_NW BOM_R50_NE BOM_R50_SE BOM_R50_SW BOM_R50_NW BOM_R64_NE BOM_R64_SE BOM_R64_SW BOM_R64_NW BOM_ROCI BOM_POCI BOM_EYE BOM_POS_METHOD BOM_PRES_METHOD NADI_LAT NADI_LON NADI_CAT NADI_WIND NADI_PRES WELLINGTON_LAT WELLINGTON_LON WELLINGTON_WIND WELLINGTON_PRES DS824_LAT DS824_LON DS824_STAGE DS824_WIND DS824_PRES TD9636_LAT TD9636_LON TD9636_STAGE TD9636_WIND TD9636_PRES TD9635_LAT TD9635_LON TD9635_WIND TD9635_PRES TD9635_ROCI NEUMANN_LAT NEUMANN_LON NEUMANN_CLASS NEUMANN_WIND NEUMANN_PRES MLC_LAT MLC_LON MLC_CLASS MLC_WIND MLC_PRES USA_GUST BOM_GUST BOM_GUST_PER REUNION_GUST REUNION_GUST_PER USA_SEAHGT USA_SEARAD_NE USA_SEARAD_SE USA_SEARAD_SW USA_SEARAD_NW STORM_SPEED STORM_DIR
1947254N17143 1947 65 WP MM KATHLEEN 1947-09-10 12:00:00 TS 17.0000 143.000 main 1957 1932 O________OOO__ jtwc_wp WP111947 17.0000 143.000 35 0 17.0000 143.000 TC 35 17.0000 143.000 2 35 17.0000 143.000 35 1004 540 8 308
1947254N17143 1947 65 WP MM KATHLEEN 1947-09-10 15:00:00 TS 17.2445 142.667 main 1932 1887 P________PPP__ WP111947 17.2499 142.728 37 0 17.2499 142.728 TC 37 17.2281 142.484 2 37 17.2499 142.728 37 1003 630 9 303
1947254N17143 1947 65 WP MM KATHLEEN 1947-09-10 18:00:00 TS 17.4911 142.211 main 1887 1835 O________OPO__ jtwc_wp WP111947 17.5000 142.300 40 0 17.5000 142.300 TC 40 17.4645 141.944 2 40 17.5000 142.300 40 1002 720 12 295
1947254N17143 1947 65 WP MM KATHLEEN 1947-09-10 21:00:00 TS 17.7421 141.543 main 1825 1765 P________PPP__ WP111947 17.7498 141.605 42 0 17.7498 141.605 TC 42 17.7188 141.357 2 42 17.7498 141.605 42 1001 600 15 289
1947254N17143 1947 65 WP MM KATHLEEN 1947-09-11 00:00:00 TS 18.0000 140.700 main 1755 1664 O________OOO__ jtwc_wp WP111947 18.0000 140.700 45 0 18.0000 140.700 TC 45 18.0000 140.700 2 45 18.0000 140.700 45 1001 480 18 286
1947254N17143 1947 65 WP MM KATHLEEN 1947-09-11 03:00:00 TS 18.2550 139.683 main 1668 1590 P________PPP__ WP111947 18.2362 139.590 47 0 18.2362 139.590 TC 47 18.3112 139.963 2 47 18.2362 139.590 47 1000 510 19 286
1947254N17143 1947 65 WP MM KATHLEEN 1947-09-11 06:00:00 TS 18.5330 138.748 main 1580 1547 O________OPO__ jtwc_wp WP111947 18.5000 138.600 50 0 18.5000 138.600 TC 50 18.6319 139.192 2 50 18.5000 138.600 50 1000 540 16 294
1947254N17143 1947 65 WP MM KATHLEEN 1947-09-11 09:00:00 TS 18.8765 138.178 main 1547 1498 P________PPP__ WP111947 18.8565 138.087 52 0 18.8565 138.087 TC 52 18.9363 138.450 2 52 18.8565 138.087 52 998 510 11 307
1947254N17143 1947 65 WP MM KATHLEEN 1947-09-11 12:00:00 TS 19.2000 137.800 main 1498 1464 O________OOO__ jtwc_wp WP111947 19.2000 137.800 55 0 19.2000 137.800 TC 55 19.2000 137.800 2 55 19.2000 137.800 55 997 480 9 309
1947254N17143 1947 65 WP MM KATHLEEN 1947-09-11 15:00:00 TS 19.4198 137.456 main 1464 1425 P________PPP__ WP111947 19.4372 137.507 57 0 19.4372 137.507 TC 57 19.3673 137.303 2 57 19.4372 137.507 57 996 450 7 300
1947254N17143 1947 65 WP MM KATHLEEN 1947-09-11 18:00:00 TS 19.5746 137.126 main 1425 1398 O________OPO__ jtwc_wp WP111947 19.6000 137.200 60 0 19.6000 137.200 TC 60 19.4983 136.906 2 60 19.6000 137.200 60 995 420 7 290
1947254N17143 1947 65 WP MM KATHLEEN 1947-09-11 21:00:00 TS 19.6770 136.713 main 1398 1371 P________PPP__ WP111947 19.6926 136.757 62 0 19.6926 136.757 TC 62 19.6303 136.581 2 62 19.6926 136.757 62 993 480 8 286
1947254N17143 1947 65 WP MM KATHLEEN 1947-09-12 00:00:00 TS 19.8000 136.300 main 1371 1334 O________OOO__ jtwc_wp WP111947 19.8000 136.300 65 1 19.8000 136.300 TC 65 19.8000 136.300 3 65 19.8000 136.300 65 992 540 8 293
1947254N17143 1947 65 WP MM KATHLEEN 1947-09-12 03:00:00 TS 19.9952 135.921 main 1334 1302 P________PPP__ WP111947 20.0125 135.905 67 1 20.0125 135.905 TC 67 19.9432 135.969 3 67 20.0125 135.905 67 991 480 8 306
1947254N17143 1947 65 WP MM KATHLEEN 1947-09-12 06:00:00 TS 20.2613 135.620 main 1291 1263 O________OPO__ jtwc_wp WP111947 20.3000 135.600 70 1 20.3000 135.600 TC 70 20.1452 135.680 3 70 20.3000 135.600 70 990 420 7 319
1947254N17143 1947 65 WP MM KATHLEEN 1947-09-12 09:00:00 TS 20.5498 135.416 main 1263 1207 P________PPP__ WP111947 20.5749 135.405 72 1 20.5749 135.405 TC 72 20.4746 135.451 3 72 20.5749 135.405 72 988 450 8 338
1947254N17143 1947 65 WP MM KATHLEEN 1947-09-12 12:00:00 TS 21.0000 135.300 main 1207 1141 O________OOO__ jtwc_wp WP111947 21.0000 135.300 75 1 21.0000 135.300 TC 75 21.0000 135.300 4 75 21.0000 135.300 75 986 480 12 351
1947254N17143 1947 65 WP MM KATHLEEN 1947-09-12 15:00:00 TS 21.6812 135.216 main 1130 1048 P________PPP__ WP111947 21.6151 135.213 77 1 21.6151 135.213 TC 77 21.8797 135.225 4 73 21.6151 135.213 77 985 480 16 357
1947254N17143 1947 65 WP MM KATHLEEN 1947-09-12 18:00:00 TS 22.6100 135.207 main 1038 922 O________OPO__ jtwc_wp WP111947 22.5000 135.200 80 1 22.5000 135.200 TC 80 22.9399 135.229 4 72 22.5000 135.200 80 984 480 22 2
1947254N17143 1947 65 WP MM KATHLEEN 1947-09-12 21:00:00 TS 23.8482 135.281 main 922 822 P________PPP__ WP111947 23.7875 135.277 75 1 23.7875 135.277 TC 75 24.0301 135.294 4 71 23.7875 135.277 75 984 450 24 4
1947254N17143 1947 65 WP MM KATHLEEN 1947-09-13 00:00:00 TS 25.0000 135.400 main 812 761 O________OOO__ jtwc_wp WP111947 25.0000 135.400 70 1 25.0000 135.400 TC 70 25.0000 135.400 4 70 25.0000 135.400 70 985 420 18 6
1947254N17143 1947 65 WP MM KATHLEEN 1947-09-13 03:00:00 TS 25.6110 135.491 main 761 728 P________PPP__ WP111947 25.6123 135.486 70 1 25.6123 135.486 TC 70 25.6069 135.507 4 72 25.6123 135.486 70 982 450 10 10
1947254N17143 1947 65 WP MM KATHLEEN 1947-09-13 06:00:00 TS 26.0205 135.612 main 728 694 O________OPO__ jtwc_wp WP111947 26.0000 135.600 70 1 26.0000 135.600 TC 70 26.0821 135.649 4 75 26.0000 135.600 70 979 480 9 18
1947254N17143 1947 65 WP MM KATHLEEN 1947-09-13 09:00:00 TS 26.4816 135.798 main 694 663 P________PPP__ WP111947 26.4701 135.793 75 1 26.4701 135.793 TC 75 26.5163 135.816 4 77 26.4701 135.793 75 976 450 10 20
1947254N17143 1947 65 WP MM KATHLEEN 1947-09-13 12:00:00 TS 27.0000 136.000 main 663 621 O________OOO__ jtwc_wp WP111947 27.0000 136.000 80 1 27.0000 136.000 TC 80 27.0000 136.000 4 80 27.0000 136.000 80 973 420 12 15
1947254N17143 1947 65 WP MM KATHLEEN 1947-09-13 15:00:00 TS 27.6680 136.156 main 620 559 P________PPP__ WP111947 27.6624 136.143 85 2 27.6624 136.143 TC 85 27.6848 136.193 4 82 27.6624 136.143 85 969 390 14 12
1947254N17143 1947 65 WP MM KATHLEEN 1947-09-13 18:00:00 TS 28.4069 136.325 main 559 484 O________OPO__ jtwc_wp WP111947 28.4000 136.300 90 2 28.4000 136.300 TC 90 28.4277 136.399 4 85 28.4000 136.300 90 966 360 15 14
1947254N17143 1947 65 WP MM KATHLEEN 1947-09-13 21:00:00 TS 29.1580 136.564 main 474 401 P________PPP__ WP111947 29.1501 136.550 90 2 29.1501 136.550 TC 90 29.1817 136.605 4 87 29.1501 136.550 90 963 330 16 16
1947254N17143 1947 65 WP MM KATHLEEN 1947-09-14 00:00:00 TS 29.9000 136.800 main 401 332 O________OOO__ jtwc_wp WP111947 29.9000 136.800 90 2 29.9000 136.800 TC 90 29.9000 136.800 4 90 29.9000 136.800 90 960 300 15 13
1947254N17143 1947 65 WP MM KATHLEEN 1947-09-14 03:00:00 TS 30.6233 136.964 main 332 274 P________PPP__ WP111947 30.6449 136.965 90 2 30.6449 136.965 TC 90 30.5584 136.961 4 85 30.6449 136.965 90 961 360 14 11
1947254N17143 1947 65 WP MM KATHLEEN 1947-09-14 06:00:00 TS 31.2674 137.102 main 264 221 O________OPO__ jtwc_wp WP111947 31.3000 137.100 90 2 31.3000 137.100 TC 90 31.1695 137.109 4 80 31.3000 137.100 90 962 420 12 12
1947254N17143 1947 65 WP MM KATHLEEN 1947-09-14 09:00:00 TS 31.7821 137.245 main 221 200 P________PPP__ WP111947 31.8024 137.243 80 1 31.8024 137.243 TC 80 31.7210 137.252 4 75 31.8024 137.243 80 968 390 10 15
1947254N17143 1947 65 WP MM KATHLEEN 1947-09-14 12:00:00 TS 32.2000 137.400 main 200 185 O________OOO__ jtwc_wp WP111947 32.2000 137.400 70 1 32.2000 137.400 TC 70 32.2000 137.400 4 70 32.2000 137.400 70 974 360 8 20
1947254N17143 1947 65 WP MM KATHLEEN 1947-09-14 15:00:00 TS 32.5682 137.579 main 185 172 P________PPP__ WP111947 32.5725 137.600 70 1 32.5725 137.600 TC 70 32.5553 137.515 4 68 32.5725 137.600 70 975 330 8 24
1947254N17143 1947 65 WP MM KATHLEEN 1947-09-14 18:00:00 TS 32.8871 137.761 main 176 153 O________OPO__ jtwc_wp WP111947 32.9000 137.800 70 1 32.9000 137.800 TC 70 32.8485 137.643 4 67 32.9000 137.800 70 976 300 7 24
1947254N17143 1947 65 WP MM KATHLEEN 1947-09-14 21:00:00 TS 33.1799 137.908 main 153 122 P________PPP__ WP111947 33.1923 137.936 67 1 33.1923 137.936 TC 67 33.1424 137.825 4 66 33.1923 137.936 67 977 300 7 25
1947254N17143 1947 65 WP MM KATHLEEN 1947-09-15 00:00:00 TS 33.5000 138.100 main 122 89 O________OOO__ jtwc_wp WP111947 33.5000 138.100 65 1 33.5000 138.100 TC 65 33.5000 138.100 4 65 33.5000 138.100 65 978 300 8 29
1947254N17143 1947 65 WP MM KATHLEEN 1947-09-15 03:00:00 TS 33.8658 138.358 main 80 34 P________PPP__ WP111947 33.8318 138.312 60 0 33.8318 138.312 TC 60 33.9677 138.498 4 61 33.8318 138.312 60 984 240 10 33
1947254N17143 1947 65 WP MM KATHLEEN 1947-09-15 06:00:00 TS 34.3457 138.760 main 33 0 O________OPO__ jtwc_wp WP111947 34.3000 138.700 55 0 34.3000 138.700 TC 55 34.5287 139.001 4 57 34.3000 138.700 55 990 180 15 36
1947254N17143 1947 65 WP MM KATHLEEN 1947-09-15 09:00:00 TS 35.0645 139.396 main 18 0 P________PPP__ WP111947 35.0503 139.365 52 0 35.0503 139.365 TC 52 35.1503 139.579 4 53 35.0503 139.365 52 992 150 19 39
1947254N17143 1947 65 WP MM KATHLEEN 1947-09-15 12:00:00 TS 35.8000 140.200 main 0 0 O________OOO__ jtwc_wp WP111947 35.8000 140.200 50 0 35.8000 140.200 TC 50 35.8000 140.200 2 50 35.8000 140.200 50 995 120 18 48
1947254N17143 1947 65 WP MM KATHLEEN 1947-09-15 15:00:00 TS 36.2883 141.053 main 44 44 P________P_P__ WP111947 36.2883 141.053 45 0 36.2883 141.053 TC 45 2 36.2883 141.053 45 997 120 16 60
1947254N17143 1947 65 WP MM KATHLEEN 1947-09-15 18:00:00 TS 36.6000 141.900 main 91 O________O_O__ jtwc_wp WP111947 36.6000 141.900 40 0 36.6000 141.900 TC 40 2 36.6000 141.900 40 999 120 15 65

Digital Typhoon Data and Search

About IBTrACS Database

This database is a web-friendly format of International Best Track Archive for Climate Stewardship (IBTrACS), a global best track data archive curated by NOAA dating back to 1842.

Updated: 2021-10-21